createdAt,value
2019-03-12T00:00:23.005Z,3.48
2019-03-12T00:02:54.076Z,3.55
2019-03-12T00:05:25.206Z,3.54
2019-03-12T00:07:56.470Z,3.30
2019-03-12T00:10:27.694Z,3.34
2019-03-12T00:12:58.915Z,3.35
2019-03-12T00:15:30.321Z,3.39
2019-03-12T00:18:01.659Z,3.42
2019-03-12T00:20:32.969Z,3.46
2019-03-12T00:23:04.237Z,3.42
2019-03-12T00:25:35.431Z,3.42
2019-03-12T00:28:06.647Z,3.28
2019-03-12T00:30:37.996Z,3.46
2019-03-12T00:33:09.364Z,3.31
2019-03-12T00:35:40.545Z,3.41
2019-03-12T00:38:11.696Z,3.24
2019-03-12T00:40:42.815Z,3.26
2019-03-12T00:43:14.121Z,3.28
2019-03-12T00:45:45.455Z,3.29
2019-03-12T00:48:16.816Z,3.15
2019-03-12T00:50:48.203Z,3.21
2019-03-12T00:53:19.501Z,3.36
2019-03-12T00:55:50.913Z,3.18
2019-03-12T00:58:22.307Z,3.37
2019-03-12T01:00:53.541Z,3.12
2019-03-12T01:03:24.800Z,3.12
2019-03-12T01:05:56.141Z,3.04
2019-03-12T01:08:27.473Z,3.22
2019-03-12T01:10:58.678Z,3.32
2019-03-12T01:13:29.989Z,3.10
2019-03-12T01:16:01.293Z,3.10
2019-03-12T01:18:32.479Z,3.10
2019-03-12T01:21:03.710Z,2.99
2019-03-12T01:23:34.918Z,3.09
2019-03-12T01:26:06.056Z,3.06
2019-03-12T01:28:37.337Z,3.06
2019-03-12T01:31:08.547Z,3.10
2019-03-12T01:33:39.681Z,3.28
2019-03-12T01:36:10.925Z,3.16
2019-03-12T01:38:42.178Z,3.20
2019-03-12T01:41:13.371Z,3.17
2019-03-12T01:43:44.591Z,3.05
2019-03-12T01:46:15.885Z,3.05
2019-03-12T01:48:47.086Z,3.08
2019-03-12T01:51:18.489Z,3.04
2019-03-12T01:53:49.680Z,3.03
2019-03-12T01:56:20.960Z,3.13
2019-03-12T01:58:52.228Z,3.07
2019-03-12T02:01:23.484Z,3.05
2019-03-12T02:03:54.704Z,2.87
2019-03-12T02:06:26.018Z,2.85
2019-03-12T02:08:57.235Z,3.13
2019-03-12T02:11:28.522Z,3.06
2019-03-12T02:13:59.791Z,3.01
2019-03-12T02:16:30.927Z,3.01
2019-03-12T02:19:02.158Z,2.92
2019-03-12T02:21:33.347Z,2.99
2019-03-12T02:24:05.497Z,2.96
2019-03-12T02:26:36.799Z,2.94
2019-03-12T02:29:08.439Z,3.05
2019-03-12T02:31:39.577Z,2.90
2019-03-12T02:34:10.766Z,3.03
2019-03-12T02:36:42.116Z,3.04
2019-03-12T02:39:13.367Z,3.00
2019-03-12T02:41:44.572Z,3.02
2019-03-12T02:44:15.918Z,3.13
2019-03-12T02:46:47.094Z,3.24
2019-03-12T02:49:18.449Z,3.21
2019-03-12T02:51:49.714Z,3.17
2019-03-12T02:54:20.900Z,3.04
2019-03-12T02:56:52.020Z,3.14
2019-03-12T02:59:23.279Z,2.96
2019-03-12T03:01:55.169Z,3.25
2019-03-12T03:04:26.523Z,3.25
2019-03-12T03:07:02.581Z,3.14
2019-03-12T03:09:33.843Z,3.22
2019-03-12T03:12:05.105Z,3.15
2019-03-12T03:14:37.671Z,3.48
2019-03-12T03:17:10.285Z,3.40
2019-03-12T03:19:41.480Z,3.24
2019-03-12T03:22:12.695Z,3.22
2019-03-12T03:24:43.909Z,3.15
2019-03-12T03:27:15.072Z,3.23
2019-03-12T03:29:46.193Z,3.35
2019-03-12T03:32:17.353Z,3.36
2019-03-12T03:34:48.418Z,3.24
2019-03-12T03:37:19.777Z,3.26
2019-03-12T03:39:51.451Z,3.13
2019-03-12T03:42:22.679Z,3.25
2019-03-12T03:44:53.913Z,3.22
2019-03-12T03:47:25.079Z,3.25
2019-03-12T03:49:56.321Z,3.37
2019-03-12T03:52:27.675Z,3.25
2019-03-12T03:54:58.825Z,3.37
2019-03-12T03:57:30.141Z,3.16
2019-03-12T04:00:02.003Z,3.23
2019-03-12T04:02:35.557Z,3.19
2019-03-12T04:05:07.522Z,3.18
2019-03-12T04:07:38.930Z,3.15
2019-03-12T04:10:11.711Z,3.16
2019-03-12T04:12:42.960Z,3.16
2019-03-12T04:15:15.919Z,3.07
2019-03-12T04:17:47.314Z,3.05
2019-03-12T04:20:18.858Z,3.06
2019-03-12T04:22:50.082Z,3.02
2019-03-12T04:25:26.403Z,3.10
2019-03-12T04:27:57.717Z,3.08
2019-03-12T04:30:29.009Z,3.16
2019-03-12T04:33:01.217Z,3.08
2019-03-12T04:35:34.165Z,3.12
2019-03-12T04:38:07.024Z,3.21
2019-03-12T04:40:38.225Z,3.26
2019-03-12T04:43:09.489Z,3.11
2019-03-12T04:45:40.799Z,3.16
2019-03-12T04:48:12.106Z,3.19
2019-03-12T04:50:43.493Z,3.38
2019-03-12T04:53:14.717Z,3.45
2019-03-12T04:55:45.995Z,3.39
2019-03-12T04:58:17.439Z,3.45
2019-03-12T05:00:48.673Z,3.38
2019-03-12T05:03:20.160Z,3.45
2019-03-12T05:05:51.911Z,3.50
2019-03-12T05:08:23.237Z,3.51
2019-03-12T05:10:54.588Z,3.32
2019-03-12T05:13:25.882Z,3.16
2019-03-12T05:15:56.997Z,3.27
2019-03-12T05:18:28.327Z,3.26
2019-03-12T05:20:59.760Z,3.21
2019-03-12T05:23:30.930Z,3.31
2019-03-12T05:26:02.267Z,3.17
2019-03-12T05:28:33.518Z,3.26
2019-03-12T05:31:04.812Z,3.65
2019-03-12T05:33:36.037Z,3.33
2019-03-12T05:36:07.195Z,3.35
2019-03-12T05:38:38.404Z,3.46
2019-03-12T05:41:12.184Z,3.47
2019-03-12T05:43:42.630Z,3.51
2019-03-12T05:46:15.372Z,3.47
2019-03-12T05:48:46.760Z,3.56
2019-03-12T05:51:18.020Z,3.52
2019-03-12T05:53:51.080Z,3.64
2019-03-12T05:56:22.389Z,3.56
2019-03-12T05:58:53.689Z,3.70
2019-03-12T06:01:24.894Z,3.59
2019-03-12T06:03:56.168Z,3.53
2019-03-12T06:06:27.437Z,3.57
2019-03-12T06:08:58.765Z,3.72
2019-03-12T06:11:31.516Z,3.81
2019-03-12T06:14:02.734Z,3.86
2019-03-12T06:16:33.978Z,3.84
2019-03-12T06:19:05.526Z,3.93
2019-03-12T06:21:36.779Z,3.84
2019-03-12T06:24:07.977Z,3.87
2019-03-12T06:26:39.328Z,3.90
2019-03-12T06:29:10.676Z,4.01
2019-03-12T06:31:46.584Z,4.13
2019-03-12T06:34:19.466Z,3.99
2019-03-12T06:36:52.346Z,4.13
2019-03-12T06:39:42.955Z,4.17
2019-03-12T06:42:20.619Z,4.27
2019-03-12T06:44:53.620Z,4.30
2019-03-12T06:47:26.524Z,4.44
2019-03-12T06:50:05.043Z,4.44
2019-03-12T06:52:43.690Z,4.48
2019-03-12T06:55:16.496Z,4.72
2019-03-12T06:58:02.351Z,4.64
2019-03-12T07:00:40.895Z,4.94
2019-03-12T07:03:16.375Z,5.00
2019-03-12T07:05:55.126Z,5.11
2019-03-12T07:08:36.506Z,5.16
2019-03-12T07:11:25.437Z,5.30
2019-03-12T07:14:00.905Z,5.51
2019-03-12T07:16:33.780Z,5.61
2019-03-12T07:19:12.593Z,5.62
2019-03-12T07:21:45.397Z,5.81
2019-03-12T07:24:18.459Z,5.79
2019-03-12T07:27:03.780Z,5.81
2019-03-12T07:29:42.510Z,5.71
2019-03-12T07:32:18.123Z,6.01
2019-03-12T07:34:50.985Z,5.98
2019-03-12T07:37:26.481Z,5.86
2019-03-12T07:39:59.294Z,6.10
2019-03-12T07:42:35.310Z,6.12
2019-03-12T07:45:10.771Z,6.16
2019-03-12T07:47:46.358Z,6.16
2019-03-12T07:50:32.200Z,6.57
2019-03-12T07:53:19.990Z,6.17
2019-03-12T07:56:10.729Z,6.69
2019-03-12T07:58:49.493Z,6.65
2019-03-12T08:01:24.925Z,6.96
2019-03-12T08:03:59.609Z,6.72
2019-03-12T08:06:50.439Z,6.70
2019-03-12T08:09:25.825Z,6.91
2019-03-12T08:12:04.448Z,6.87
2019-03-12T08:14:37.154Z,6.93
2019-03-12T08:17:13.081Z,7.26
2019-03-12T08:20:02.068Z,7.12
2019-03-12T08:22:35.018Z,7.05
2019-03-12T08:25:09.734Z,7.04
2019-03-12T08:27:54.456Z,7.28
2019-03-12T08:30:33.311Z,7.44
2019-03-12T08:33:09.082Z,7.55
2019-03-12T08:35:44.740Z,7.19
2019-03-12T08:38:17.552Z,7.41
2019-03-12T08:41:06.562Z,7.64
2019-03-12T08:43:42.197Z,7.53
2019-03-12T08:46:18.392Z,7.36
2019-03-12T08:48:53.216Z,7.39
2019-03-12T08:51:29.032Z,7.39
2019-03-12T08:54:04.849Z,7.70
2019-03-12T08:56:40.624Z,7.84
2019-03-12T08:59:25.790Z,7.94
2019-03-12T09:02:02.390Z,7.86
2019-03-12T09:04:50.659Z,8.05
2019-03-12T09:07:32.566Z,8.19
2019-03-12T09:10:08.758Z,7.82
2019-03-12T09:12:47.730Z,8.36
2019-03-12T09:15:32.507Z,8.22
2019-03-12T09:18:05.258Z,8.10
2019-03-12T09:20:54.314Z,8.06
2019-03-12T09:23:36.347Z,8.27
2019-03-12T09:26:20.687Z,7.90
2019-03-12T09:29:05.497Z,7.65
2019-03-12T09:31:44.391Z,7.78
2019-03-12T09:34:23.233Z,7.56
2019-03-12T09:37:11.339Z,7.70
2019-03-12T09:39:44.228Z,8.04
2019-03-12T09:42:28.968Z,7.90
2019-03-12T09:45:07.659Z,8.07
2019-03-12T09:47:40.601Z,7.67
2019-03-12T09:50:19.305Z,7.64
2019-03-12T09:53:01.575Z,7.70
2019-03-12T09:55:40.546Z,7.84
2019-03-12T09:58:19.410Z,7.75
2019-03-12T10:00:55.311Z,7.90
2019-03-12T10:03:31.122Z,7.99
2019-03-12T10:06:19.113Z,7.87
2019-03-12T10:08:54.935Z,8.29
2019-03-12T10:11:40.095Z,8.21
2019-03-12T10:14:28.972Z,8.25
2019-03-12T10:17:18.255Z,8.44
2019-03-12T10:19:51.169Z,8.29
2019-03-12T10:22:29.838Z,8.38
2019-03-12T10:25:17.937Z,8.29
2019-03-12T10:27:57.059Z,8.06
2019-03-12T10:30:32.824Z,8.32
2019-03-12T10:33:08.507Z,8.30
2019-03-12T10:35:44.328Z,8.58
2019-03-12T10:39:07.050Z,8.49
2019-03-12T10:41:49.500Z,8.87
2019-03-12T10:44:21.964Z,8.79
2019-03-12T10:47:00.438Z,8.82
2019-03-12T10:49:37.538Z,8.89
2019-03-12T10:52:04.667Z,8.32
2019-03-12T10:54:36.126Z,8.29
2019-03-12T10:57:07.208Z,8.46
2019-03-12T10:59:38.841Z,8.41
2019-03-12T11:02:10.177Z,8.61
2019-03-12T11:04:42.485Z,8.57
2019-03-12T11:07:16.667Z,9.11
2019-03-12T11:09:46.625Z,9.29
2019-03-12T11:12:17.907Z,9.10
2019-03-12T11:14:49.076Z,8.63
2019-03-12T11:17:20.285Z,8.50
2019-03-12T11:19:51.474Z,8.53
2019-03-12T11:22:22.787Z,8.50
2019-03-12T11:24:55.256Z,8.00
2019-03-12T11:27:26.387Z,8.48
2019-03-12T11:29:57.806Z,8.65
2019-03-12T11:32:28.994Z,8.24
2019-03-12T11:35:00.406Z,8.82
2019-03-12T11:37:31.681Z,8.90
2019-03-12T11:40:03.184Z,8.71
2019-03-12T11:42:35.678Z,9.20
2019-03-12T11:45:16.129Z,8.92
2019-03-12T11:47:44.960Z,9.00
2019-03-12T11:50:23.577Z,8.43
2019-03-12T11:52:58.378Z,9.05
2019-03-12T11:55:27.901Z,8.91
2019-03-12T11:57:59.522Z,8.96
2019-03-12T12:00:35.549Z,8.86
2019-03-12T12:03:06.938Z,9.06
2019-03-12T12:05:38.209Z,9.07
2019-03-12T12:08:09.470Z,8.85
2019-03-12T12:10:40.651Z,8.55
2019-03-12T12:13:11.808Z,8.58
2019-03-12T12:15:43.179Z,9.15
2019-03-12T12:18:14.472Z,9.25
2019-03-12T12:20:45.616Z,8.85
2019-03-12T12:23:16.894Z,8.42
2019-03-12T12:25:48.186Z,8.07
2019-03-12T12:28:19.236Z,8.41
2019-03-12T12:30:50.352Z,8.14
2019-03-12T12:33:21.620Z,8.58
2019-03-12T12:35:52.958Z,8.58
2019-03-12T12:38:24.272Z,8.85
2019-03-12T12:40:55.708Z,8.70
2019-03-12T12:43:26.980Z,8.22
2019-03-12T12:45:58.342Z,8.47
2019-03-12T12:48:29.722Z,8.40
2019-03-12T12:51:03.470Z,8.80
2019-03-12T12:53:34.161Z,8.86
2019-03-12T12:56:05.445Z,8.67
2019-03-12T12:58:36.612Z,8.80
2019-03-12T13:01:07.882Z,8.63
2019-03-12T13:03:39.181Z,8.13
2019-03-12T13:06:10.336Z,8.33
2019-03-12T13:08:41.617Z,8.27
2019-03-12T13:11:12.760Z,7.63
2019-03-12T13:13:43.978Z,8.20
2019-03-12T13:16:24.351Z,8.01
2019-03-12T13:18:48.411Z,7.95
2019-03-12T13:21:20.763Z,7.94
2019-03-12T13:23:52.033Z,7.99
2019-03-12T13:26:23.172Z,7.66
2019-03-12T13:28:54.316Z,8.10
2019-03-12T13:31:25.480Z,7.89
2019-03-12T13:33:56.709Z,7.75
2019-03-12T13:36:27.791Z,8.01
2019-03-12T13:38:59.061Z,8.04
2019-03-12T13:41:30.535Z,7.95
2019-03-12T13:44:01.848Z,7.97
2019-03-12T13:46:33.131Z,7.87
2019-03-12T13:49:04.290Z,7.89
2019-03-12T13:51:35.752Z,7.74
2019-03-12T13:54:09.741Z,7.73
2019-03-12T13:56:41.077Z,7.64
2019-03-12T13:59:12.281Z,7.56
2019-03-12T14:01:43.599Z,7.52
2019-03-12T14:04:14.858Z,7.44
2019-03-12T14:06:46.144Z,7.43
2019-03-12T14:09:17.299Z,7.40
2019-03-12T14:11:48.700Z,7.26
2019-03-12T14:14:20.009Z,7.35
2019-03-12T14:16:51.200Z,7.29
2019-03-12T14:19:23.415Z,7.29
2019-03-12T14:21:54.769Z,7.29
2019-03-12T14:24:26.126Z,7.29
2019-03-12T14:26:58.583Z,7.53
2019-03-12T14:29:29.978Z,7.39
2019-03-12T14:32:01.204Z,7.19
2019-03-12T14:34:33.623Z,7.19
2019-03-12T14:37:04.798Z,6.98
2019-03-12T14:39:36.083Z,6.83
2019-03-12T14:42:07.460Z,6.86
2019-03-12T14:44:38.710Z,7.00
2019-03-12T14:47:10.079Z,7.11
2019-03-12T14:49:41.445Z,6.90
2019-03-12T14:52:12.962Z,6.94
2019-03-12T14:54:44.257Z,6.81
2019-03-12T14:57:18.199Z,7.00
2019-03-12T14:59:49.596Z,7.00
2019-03-12T15:02:20.872Z,7.09
2019-03-12T15:04:52.401Z,7.31
2019-03-12T15:07:23.668Z,7.12
2019-03-12T15:09:54.971Z,7.03
2019-03-12T15:12:26.304Z,6.87
2019-03-12T15:14:57.780Z,6.92
2019-03-12T15:17:28.969Z,6.82
2019-03-12T15:20:00.379Z,6.83
2019-03-12T15:22:31.612Z,7.06
2019-03-12T15:25:02.970Z,6.93
2019-03-12T15:27:34.096Z,6.83
2019-03-12T15:30:11.602Z,6.98
2019-03-12T15:32:42.869Z,6.79
2019-03-12T15:35:14.067Z,6.80
2019-03-12T15:37:45.431Z,6.70
2019-03-12T15:40:16.654Z,6.68
2019-03-12T15:42:47.879Z,6.54
2019-03-12T15:45:19.024Z,6.62
2019-03-12T15:47:50.446Z,6.57
2019-03-12T15:50:21.527Z,6.28
2019-03-12T15:52:52.771Z,6.31
2019-03-12T15:55:23.960Z,6.31
2019-03-12T15:57:55.296Z,6.17
2019-03-12T16:00:26.558Z,6.02
2019-03-12T16:02:57.777Z,6.14
2019-03-12T16:05:29.227Z,6.07
2019-03-12T16:08:00.561Z,6.02
2019-03-12T16:10:31.874Z,5.86
2019-03-12T16:13:03.188Z,5.89
2019-03-12T16:15:37.538Z,5.94
2019-03-12T16:18:07.920Z,5.89
2019-03-12T16:20:39.393Z,5.85
2019-03-12T16:23:10.675Z,5.80
2019-03-12T16:25:43.559Z,5.75
2019-03-12T16:28:16.461Z,5.57
2019-03-12T16:30:47.841Z,5.70
2019-03-12T16:33:19.249Z,5.70
2019-03-12T16:35:50.614Z,5.78
2019-03-12T16:38:22.005Z,5.67
2019-03-12T16:40:53.171Z,5.74
2019-03-12T16:43:24.680Z,5.53
2019-03-12T16:45:55.961Z,5.57
2019-03-12T16:48:27.426Z,5.67
2019-03-12T16:50:58.731Z,5.48
2019-03-12T16:53:30.127Z,5.60
2019-03-12T16:56:01.543Z,5.51
2019-03-12T16:58:32.954Z,5.45
2019-03-12T17:01:04.254Z,5.51
2019-03-12T17:03:35.585Z,5.43
2019-03-12T17:06:06.985Z,5.44
2019-03-12T17:08:38.278Z,5.34
2019-03-12T17:11:10.812Z,5.28
2019-03-12T17:13:42.200Z,5.19
2019-03-12T17:16:13.547Z,5.18
2019-03-12T17:18:44.904Z,5.31
2019-03-12T17:21:16.308Z,5.21
2019-03-12T17:23:47.734Z,5.22
2019-03-12T17:26:18.924Z,5.16
2019-03-12T17:28:50.283Z,5.29
2019-03-12T17:31:21.484Z,5.14
2019-03-12T17:33:52.932Z,5.15
2019-03-12T17:36:24.294Z,5.12
2019-03-12T17:38:55.702Z,5.03
2019-03-12T17:41:27.011Z,5.04
2019-03-12T17:44:00.640Z,4.99
2019-03-12T17:46:33.104Z,4.96
2019-03-12T17:49:04.506Z,4.78
2019-03-12T17:51:35.744Z,4.75
2019-03-12T17:54:08.191Z,4.79
2019-03-12T17:56:40.278Z,4.84
2019-03-12T17:59:14.478Z,4.93
2019-03-12T18:01:46.075Z,4.75
2019-03-12T18:04:17.504Z,4.50
2019-03-12T18:06:48.903Z,4.51
2019-03-12T18:09:20.308Z,4.49
2019-03-12T18:11:53.787Z,4.33
2019-03-12T18:14:24.738Z,4.24
2019-03-12T18:16:56.111Z,4.40
2019-03-12T18:19:27.454Z,4.38
2019-03-12T18:21:58.822Z,4.49
2019-03-12T18:24:30.242Z,4.50
2019-03-12T18:27:01.638Z,4.42
2019-03-12T18:29:32.962Z,4.40
2019-03-12T18:32:04.285Z,4.46
2019-03-12T18:34:35.598Z,4.41
2019-03-12T18:37:06.939Z,4.40
2019-03-12T18:39:38.401Z,4.16
2019-03-12T18:42:09.727Z,4.20
2019-03-12T18:44:41.257Z,4.12
2019-03-12T18:47:12.585Z,4.15
2019-03-12T18:49:43.934Z,4.35
2019-03-12T18:52:15.364Z,4.31
2019-03-12T18:54:46.528Z,4.13
2019-03-12T18:57:17.848Z,3.97
2019-03-12T18:59:49.548Z,3.92
2019-03-12T19:02:20.875Z,3.94
2019-03-12T19:04:52.295Z,3.94
2019-03-12T19:07:23.568Z,3.54
2019-03-12T19:09:54.909Z,3.53
2019-03-12T19:12:27.807Z,3.86
2019-03-12T19:14:59.553Z,3.81
2019-03-12T19:17:30.932Z,3.83
2019-03-12T19:20:02.274Z,3.64
2019-03-12T19:22:34.684Z,3.58
2019-03-12T19:25:09.132Z,3.49
2019-03-12T19:27:40.523Z,3.52
2019-03-12T19:30:16.633Z,3.45
2019-03-12T19:33:08.694Z,3.50
2019-03-12T19:35:40.041Z,3.21
2019-03-12T19:38:11.364Z,3.06
2019-03-12T19:40:44.192Z,3.26
2019-03-12T19:43:15.525Z,3.18
2019-03-12T19:45:46.846Z,3.13
2019-03-12T19:48:18.183Z,3.16
2019-03-12T19:50:49.509Z,3.11
2019-03-12T19:53:20.914Z,3.03
2019-03-12T19:55:58.181Z,3.09
2019-03-12T19:58:29.594Z,3.04
2019-03-12T20:01:01.118Z,2.96
2019-03-12T20:03:33.903Z,3.01
2019-03-12T20:06:05.225Z,2.91
2019-03-12T20:08:36.633Z,2.82
2019-03-12T20:11:35.427Z,2.69
2019-03-12T20:14:09.955Z,2.73
2019-03-12T20:17:09.139Z,2.70
2019-03-12T20:19:58.492Z,2.83
2019-03-12T20:22:55.592Z,2.83
2019-03-12T20:26:00.408Z,2.71
2019-03-12T20:29:04.800Z,2.62
2019-03-12T20:31:55.715Z,2.79
2019-03-12T20:35:01.480Z,2.64
2019-03-12T20:38:01.671Z,2.58
2019-03-12T20:40:54.991Z,2.71
2019-03-12T20:43:46.109Z,2.66
2019-03-12T20:46:23.266Z,2.66
2019-03-12T20:49:31.003Z,2.75
2019-03-12T20:52:29.771Z,2.66
2019-03-12T20:55:23.933Z,2.76
2019-03-12T20:58:10.449Z,2.73
2019-03-12T21:00:47.784Z,2.59
2019-03-12T21:03:37.037Z,2.70
2019-03-12T21:06:36.715Z,2.76
2019-03-12T21:09:40.527Z,2.79
2019-03-12T21:12:47.133Z,2.71
2019-03-12T21:15:37.944Z,2.68
2019-03-12T21:18:24.420Z,2.56
2019-03-12T21:21:32.216Z,2.60
2019-03-12T21:24:16.431Z,2.57
2019-03-12T21:26:56.584Z,2.46
2019-03-12T21:29:48.449Z,2.59
2019-03-12T21:32:19.763Z,2.78
2019-03-12T21:34:51.138Z,2.90
2019-03-12T21:37:22.486Z,2.95
2019-03-12T21:39:56.214Z,2.89
2019-03-12T21:42:26.907Z,2.99
2019-03-12T21:44:58.263Z,2.73
2019-03-12T21:47:29.619Z,3.05
2019-03-12T21:50:00.982Z,2.94
2019-03-12T21:52:32.314Z,2.97
2019-03-12T21:55:13.825Z,3.01
2019-03-12T21:57:45.221Z,3.00
2019-03-12T22:00:21.002Z,2.89
2019-03-12T22:02:52.341Z,2.90
2019-03-12T22:05:23.733Z,2.74
2019-03-12T22:07:55.139Z,2.89
2019-03-12T22:10:26.324Z,2.79
2019-03-12T22:12:57.728Z,2.84
2019-03-12T22:15:29.957Z,2.67
2019-03-12T22:18:01.572Z,2.77
2019-03-12T22:20:33.056Z,2.90
2019-03-12T22:23:12.071Z,2.85
2019-03-12T22:25:43.388Z,2.76
2019-03-12T22:28:14.734Z,2.83
2019-03-12T22:30:46.099Z,2.88
2019-03-12T22:33:17.348Z,2.83
2019-03-12T22:35:48.833Z,2.86
2019-03-12T22:38:20.160Z,2.65
2019-03-12T22:40:51.494Z,2.65
2019-03-12T22:43:22.837Z,2.58
2019-03-12T22:45:54.191Z,2.75
2019-03-12T22:48:27.080Z,2.55
2019-03-12T22:50:58.806Z,2.39
2019-03-12T22:53:30.229Z,2.47
2019-03-12T22:56:01.590Z,2.50
2019-03-12T22:58:34.028Z,2.65
2019-03-12T23:01:23.425Z,2.69
2019-03-12T23:04:12.942Z,2.72
2019-03-12T23:07:02.058Z,2.72
2019-03-12T23:09:50.024Z,2.65
2019-03-12T23:12:22.835Z,2.58
2019-03-12T23:14:55.567Z,2.48
2019-03-12T23:17:26.964Z,2.47
2019-03-12T23:19:58.313Z,2.50
2019-03-12T23:22:29.816Z,2.53
2019-03-12T23:25:01.206Z,2.66
2019-03-12T23:27:33.171Z,2.59
2019-03-12T23:30:16.047Z,2.54
2019-03-12T23:32:47.355Z,2.62
2019-03-12T23:35:19.601Z,2.43
2019-03-12T23:37:50.991Z,2.68
2019-03-12T23:40:23.493Z,2.65
2019-03-12T23:42:54.822Z,2.69
2019-03-12T23:45:26.127Z,2.67
2019-03-12T23:47:57.430Z,2.56
2019-03-12T23:50:28.680Z,2.60
2019-03-12T23:52:59.953Z,2.41
2019-03-12T23:55:31.345Z,2.39
2019-03-12T23:58:02.768Z,2.43
